Time;durP1;ratioP1;P1;durP2;ratioP2;P2;SDS_P1;SDS_P2;PMS_P1;PMS_P2;Temp;Humidity;BMP_temperature;BMP_pressure;BME280_temperature;BME280_humidity;BME280_pressure;Samples;Min_cycle;Max_cycle;Signal;HPM_P1;HPM_P2
2021/10/05 00:02:13;;;;;;;5.20;1.60;;;13.10;99.90;;;;;;4988681;28;20348;-87
2021/10/05 00:04:40;;;;;;;4.93;1.83;;;13.10;99.90;;;;;;4988258;28;20204;-87
2021/10/05 00:07:07;;;;;;;5.73;1.60;;;13.00;99.90;;;;;;4988827;28;20204;-91
2021/10/05 00:09:35;;;;;;;4.83;1.60;;;13.00;99.90;;;;;;4969601;28;20300;-85
2021/10/05 00:12:02;;;;;;;3.83;1.60;;;12.90;99.90;;;;;;4989682;28;20214;-88
2021/10/05 00:14:30;;;;;;;5.03;1.77;;;12.90;99.90;;;;;;4999051;28;20208;-89
2021/10/05 00:16:57;;;;;;;6.20;1.87;;;12.90;99.90;;;;;;4999242;28;20254;-89
2021/10/05 00:19:24;;;;;;;6.63;2.33;;;12.90;99.90;;;;;;4991598;28;20203;-92
2021/10/05 00:21:51;;;;;;;4.97;1.83;;;12.80;99.90;;;;;;4991359;28;20627;-92
2021/10/05 00:24:18;;;;;;;7.23;1.87;;;12.80;99.90;;;;;;4992370;28;20200;-91
2021/10/05 00:26:46;;;;;;;7.37;2.53;;;12.80;99.90;;;;;;5005361;28;20223;-88
2021/10/05 00:29:13;;;;;;;6.17;2.27;;;12.80;99.90;;;;;;5010479;28;20210;-89
2021/10/05 00:31:41;;;;;;;8.67;1.80;;;12.70;99.90;;;;;;5011304;28;20214;-87
2021/10/05 00:34:08;;;;;;;4.23;1.73;;;12.60;99.90;;;;;;4991890;28;20231;-92
2021/10/05 00:36:35;;;;;;;5.77;2.07;;;12.60;99.90;;;;;;4990816;28;20224;-87
2021/10/05 00:39:02;;;;;;;3.97;1.73;;;12.60;99.90;;;;;;5011426;28;20204;-90
2021/10/05 00:41:28;;;;;;;5.20;1.70;;;12.50;99.90;;;;;;5011127;28;20203;-88
2021/10/05 00:43:59;;;;;;;5.80;2.03;;;12.50;99.90;;;;;;5014537;28;20652;-91
2021/10/05 00:46:26;;;;;;;7.00;1.93;;;12.50;99.90;;;;;;5004249;28;20212;-89
2021/10/05 00:48:55;;;;;;;5.37;1.93;;;12.40;99.90;;;;;;4995303;28;20211;-86
2021/10/05 00:51:23;;;;;;;7.53;1.87;;;12.40;99.90;;;;;;4995109;28;20203;-88
2021/10/05 00:53:51;;;;;;;10.80;2.27;;;12.40;99.90;;;;;;5012197;28;20234;-88
2021/10/05 00:56:18;;;;;;;8.07;2.00;;;12.40;99.90;;;;;;5014056;28;20553;-89
2021/10/05 00:58:45;;;;;;;5.83;2.60;;;12.40;99.90;;;;;;5014070;28;20500;-88
2021/10/05 01:01:12;;;;;;;4.03;1.67;;;12.40;99.90;;;;;;5014757;28;20210;-90
2021/10/05 01:03:40;;;;;;;5.93;1.70;;;12.30;99.90;;;;;;5013856;28;20203;-90
2021/10/05 01:06:08;;;;;;;4.90;1.90;;;12.30;99.90;;;;;;5014704;28;20230;-88
2021/10/05 01:08:36;;;;;;;5.13;1.87;;;12.30;99.90;;;;;;5014587;28;20219;-89
2021/10/05 01:11:02;;;;;;;4.43;1.77;;;12.30;99.90;;;;;;5014332;28;20483;-86
2021/10/05 01:13:29;;;;;;;3.47;1.40;;;12.30;99.90;;;;;;5002195;28;20235;-90
2021/10/05 01:15:56;;;;;;;5.80;1.70;;;12.30;99.90;;;;;;4994857;28;20262;-88
2021/10/05 01:18:23;;;;;;;7.00;2.13;;;12.30;99.90;;;;;;4994099;28;20227;-89
2021/10/05 01:20:56;;;;;;;3.80;1.70;;;12.20;99.90;;;;;;4994453;28;20220;-85
2021/10/05 01:23:23;;;;;;;5.60;1.90;;;12.20;99.90;;;;;;4994412;28;20212;-86
2021/10/05 01:25:50;;;;;;;7.77;2.57;;;12.20;99.90;;;;;;4994553;28;20215;-85
2021/10/05 01:28:19;;;;;;;5.73;1.67;;;12.20;99.90;;;;;;4996617;28;20207;-90
2021/10/05 01:30:46;;;;;;;3.23;1.53;;;12.20;99.90;;;;;;5014481;28;20227;-89
2021/10/05 01:33:13;;;;;;;6.23;2.17;;;12.20;99.90;;;;;;5014315;28;20199;-90
2021/10/05 01:35:40;;;;;;;3.97;1.83;;;12.20;99.90;;;;;;5014771;28;20199;-91
2021/10/05 01:38:10;;;;;;;7.90;1.57;;;12.20;99.90;;;;;;5012274;28;20504;-89
2021/10/05 01:40:37;;;;;;;6.63;2.10;;;12.10;99.90;;;;;;5014508;28;20209;-91
2021/10/05 01:43:05;;;;;;;8.83;1.67;;;12.10;99.90;;;;;;5014739;28;20200;-87
2021/10/05 01:45:32;;;;;;;6.03;1.70;;;12.10;99.90;;;;;;5012695;28;20211;-88
2021/10/05 01:47:59;;;;;;;5.17;1.57;;;12.10;99.90;;;;;;5019102;28;20207;-87
2021/10/05 01:50:27;;;;;;;5.07;1.50;;;12.10;99.90;;;;;;5013952;28;20611;-90
2021/10/05 01:52:54;;;;;;;5.27;1.67;;;12.10;99.90;;;;;;5002095;28;20242;-89
2021/10/05 01:55:23;;;;;;;3.60;1.60;;;12.10;99.90;;;;;;4994356;28;20323;-92
2021/10/05 01:57:50;;;;;;;4.63;1.70;;;12.10;99.90;;;;;;4995010;28;20261;-91
2021/10/05 02:00:18;;;;;;;5.73;1.60;;;12.00;99.90;;;;;;4995651;28;20215;-90
2021/10/05 02:02:45;;;;;;;7.20;1.70;;;12.00;99.90;;;;;;5013389;28;20821;-89
2021/10/05 02:05:12;;;;;;;3.90;1.50;;;12.00;99.90;;;;;;5018920;28;20234;-91
2021/10/05 02:07:39;;;;;;;4.93;1.57;;;12.00;99.90;;;;;;5029906;28;20199;-89
2021/10/05 02:10:08;;;;;;;7.57;1.40;;;12.00;99.90;;;;;;4993673;28;20200;-87
2021/10/05 02:12:37;;;;;;;3.53;1.70;;;12.00;99.90;;;;;;5004865;28;20543;-87
2021/10/05 02:15:05;;;;;;;3.67;1.50;;;12.00;99.90;;;;;;5013016;28;20191;-86
2021/10/05 02:17:32;;;;;;;4.70;1.70;;;11.90;99.90;;;;;;5012467;28;20239;-87
2021/10/05 02:19:59;;;;;;;3.50;1.50;;;11.90;99.90;;;;;;5011956;28;20242;-86
2021/10/05 02:22:28;;;;;;;6.13;2.03;;;11.90;99.90;;;;;;4997571;28;20507;-87
2021/10/05 02:24:56;;;;;;;3.30;1.30;;;11.90;99.90;;;;;;4993172;28;20212;-86
2021/10/05 02:27:23;;;;;;;5.00;1.30;;;11.90;99.90;;;;;;4992747;28;20216;-88
2021/10/05 02:29:51;;;;;;;2.37;1.60;;;11.90;99.90;;;;;;4992793;28;20543;-84
2021/10/05 02:32:18;;;;;;;3.50;1.40;;;11.90;99.90;;;;;;4992548;28;20222;-83
2021/10/05 02:34:45;;;;;;;5.60;1.60;;;11.90;99.90;;;;;;4993029;28;20216;-87
2021/10/05 02:37:12;;;;;;;9.10;2.27;;;11.80;99.90;;;;;;4998214;28;20226;-89
2021/10/05 02:39:39;;;;;;;4.17;1.20;;;11.90;99.90;;;;;;5012430;28;20240;-88
2021/10/05 02:42:06;;;;;;;6.13;1.60;;;11.80;99.90;;;;;;5012612;28;20211;-88
2021/10/05 02:44:35;;;;;;;3.67;1.30;;;11.80;99.90;;;;;;4994227;28;20207;-85
2021/10/05 02:47:05;;;;;;;3.63;1.50;;;11.80;99.90;;;;;;4993181;28;20247;-87
2021/10/05 02:49:32;;;;;;;4.50;1.20;;;11.80;99.90;;;;;;4992528;28;20210;-86
2021/10/05 02:51:58;;;;;;;3.37;1.40;;;11.80;99.90;;;;;;5007728;28;20292;-86
2021/10/05 02:54:25;;;;;;;6.00;1.60;;;11.80;99.90;;;;;;5011871;28;20217;-87
2021/10/05 02:56:52;;;;;;;4.90;1.60;;;11.80;99.90;;;;;;5011826;28;20205;-85
2021/10/05 02:59:19;;;;;;;3.30;1.70;;;11.80;99.90;;;;;;5011070;28;20238;-85
2021/10/05 03:01:46;;;;;;;8.40;1.50;;;11.70;99.90;;;;;;5011292;28;20204;-86
2021/10/05 03:04:14;;;;;;;3.67;1.37;;;11.80;99.90;;;;;;5007766;28;20195;-90
2021/10/05 03:06:41;;;;;;;3.50;1.40;;;11.80;99.90;;;;;;4994942;28;20911;-88
2021/10/05 03:09:08;;;;;;;5.07;1.60;;;11.70;99.90;;;;;;4993768;28;20200;-86
2021/10/05 03:11:36;;;;;;;2.57;1.63;;;11.70;99.90;;;;;;4992311;28;20200;-91
2021/10/05 03:14:02;;;;;;;5.87;1.43;;;11.70;99.90;;;;;;5006174;28;20214;-91
2021/10/05 03:16:29;;;;;;;4.00;1.30;;;11.70;99.90;;;;;;5012802;28;20191;-88
2021/10/05 03:18:56;;;;;;;3.27;1.17;;;11.70;99.90;;;;;;5010205;28;20266;-87
2021/10/05 03:21:24;;;;;;;4.10;1.70;;;11.70;99.90;;;;;;5012110;28;20196;-87
2021/10/05 03:23:52;;;;;;;3.57;1.37;;;11.70;99.90;;;;;;5011363;28;20213;-86
2021/10/05 03:26:19;;;;;;;6.27;1.33;;;11.70;99.90;;;;;;5012062;28;20257;-90
2021/10/05 03:28:46;;;;;;;7.73;1.80;;;11.60;99.90;;;;;;5011172;28;20537;-90
2021/10/05 03:31:15;;;;;;;2.47;1.40;;;11.60;99.90;;;;;;5012043;28;20227;-84
2021/10/05 03:33:43;;;;;;;5.97;1.50;;;11.60;99.90;;;;;;5008220;28;20207;-87
2021/10/05 03:36:10;;;;;;;3.10;1.63;;;11.60;99.90;;;;;;4991931;28;20773;-87
2021/10/05 03:38:40;;;;;;;7.20;1.60;;;11.60;99.90;;;;;;4991113;28;20227;-90
2021/10/05 03:41:09;;;;;;;5.17;1.67;;;11.60;99.90;;;;;;4991079;28;20486;-83
2021/10/05 03:43:36;;;;;;;3.47;1.30;;;11.60;99.90;;;;;;4991097;28;20247;-85
2021/10/05 03:46:03;;;;;;;5.93;2.13;;;11.60;99.90;;;;;;4990166;28;20496;-85
2021/10/05 03:48:30;;;;;;;8.27;1.80;;;11.60;99.90;;;;;;4992652;28;20204;-82
2021/10/05 03:50:57;;;;;;;4.70;1.97;;;11.60;99.90;;;;;;4975027;28;20295;-90
2021/10/05 03:53:24;;;;;;;5.33;2.30;;;11.60;99.90;;;;;;5001401;28;20207;-85
2021/10/05 03:55:54;;;;;;;3.60;1.40;;;11.60;99.90;;;;;;5011710;28;20191;-86
2021/10/05 03:58:23;;;;;;;4.60;1.73;;;11.60;99.90;;;;;;5011606;28;20234;-86
2021/10/05 04:00:50;;;;;;;6.53;1.63;;;11.50;99.90;;;;;;5008812;28;20207;-86
2021/10/05 04:03:17;;;;;;;4.83;1.70;;;11.50;99.90;;;;;;4991561;28;20200;-86
2021/10/05 04:05:44;;;;;;;3.43;1.63;;;11.50;99.90;;;;;;4991259;28;20254;-87
2021/10/05 04:08:11;;;;;;;5.40;1.50;;;11.50;99.90;;;;;;4991436;28;20208;-86
2021/10/05 04:10:39;;;;;;;5.03;1.70;;;11.40;99.90;;;;;;5005786;28;20289;-86
2021/10/05 04:13:07;;;;;;;6.00;1.50;;;11.40;99.90;;;;;;5011364;28;20203;-87
2021/10/05 04:15:34;;;;;;;3.90;1.50;;;11.40;99.90;;;;;;5007751;28;20210;-90
2021/10/05 04:18:03;;;;;;;3.43;1.33;;;11.40;99.90;;;;;;4993866;28;20226;-87
2021/10/05 04:20:30;;;;;;;8.07;1.67;;;11.30;99.90;;;;;;4995762;28;20200;-85
2021/10/05 04:22:57;;;;;;;2.60;1.43;;;11.40;99.90;;;;;;4996615;28;20788;-86
2021/10/05 04:25:24;;;;;;;2.97;1.50;;;11.40;99.90;;;;;;4995291;28;20215;-86
2021/10/05 04:27:51;;;;;;;4.10;1.50;;;11.30;99.90;;;;;;4994878;28;20204;-85
2021/10/05 04:30:20;;;;;;;6.17;1.87;;;11.30;99.90;;;;;;4993876;28;20215;-88
2021/10/05 04:32:47;;;;;;;6.63;1.53;;;11.40;99.90;;;;;;4994319;28;20530;-89
2021/10/05 04:35:13;;;;;;;5.80;1.70;;;11.30;99.90;;;;;;4994361;28;20207;-87
2021/10/05 04:37:40;;;;;;;4.50;1.60;;;11.30;99.90;;;;;;4996064;28;20294;-90
2021/10/05 04:40:09;;;;;;;4.60;1.60;;;11.30;99.90;;;;;;5010853;28;20226;-89
2021/10/05 04:42:36;;;;;;;4.30;2.27;;;11.40;99.90;;;;;;5034633;28;20202;-88
2021/10/05 04:45:03;;;;;;;5.70;1.67;;;11.40;99.90;;;;;;5018334;28;20918;-86
2021/10/05 04:47:31;;;;;;;6.40;1.60;;;11.40;99.90;;;;;;5014802;28;20211;-86
2021/10/05 04:49:58;;;;;;;3.73;1.63;;;11.40;99.90;;;;;;4997422;28;20211;-85
2021/10/05 04:52:25;;;;;;;5.10;1.80;;;11.30;99.90;;;;;;4995371;28;20226;-86
2021/10/05 04:54:52;;;;;;;3.57;1.97;;;11.40;99.90;;;;;;4995666;28;20211;-88
2021/10/05 04:57:19;;;;;;;4.10;1.50;;;11.40;99.90;;;;;;4993134;28;20259;-91
2021/10/05 04:59:46;;;;;;;5.00;1.60;;;11.40;99.90;;;;;;4993604;28;20227;-91
2021/10/05 05:02:13;;;;;;;3.40;1.63;;;11.40;99.90;;;;;;4996103;28;20208;-88
2021/10/05 05:04:42;;;;;;;4.23;1.80;;;11.40;99.90;;;;;;5005241;28;20215;-88
2021/10/05 05:07:09;;;;;;;4.10;1.40;;;11.40;99.90;;;;;;5016260;28;20276;-86
2021/10/05 05:09:36;;;;;;;4.93;1.63;;;11.40;99.90;;;;;;5013304;28;20203;-87
2021/10/05 05:12:03;;;;;;;5.83;1.50;;;11.40;99.90;;;;;;5003040;28;20219;-87
2021/10/05 05:14:31;;;;;;;4.70;1.70;;;11.40;99.90;;;;;;4994288;28;20215;-87
2021/10/05 05:16:57;;;;;;;5.67;1.60;;;11.40;99.90;;;;;;4993783;28;20200;-86
2021/10/05 05:19:24;;;;;;;3.80;1.50;;;11.40;99.90;;;;;;4993991;28;20224;-85
2021/10/05 05:21:53;;;;;;;6.13;1.73;;;11.40;99.90;;;;;;4994822;28;20226;-87
2021/10/05 05:24:20;;;;;;;3.90;1.70;;;11.40;99.90;;;;;;4993928;28;20220;-88
2021/10/05 05:26:47;;;;;;;5.77;2.00;;;11.40;99.90;;;;;;4994382;28;20201;-86
2021/10/05 05:29:14;;;;;;;5.43;2.10;;;11.40;99.90;;;;;;4993520;28;20200;-87
2021/10/05 05:31:41;;;;;;;4.37;2.00;;;11.40;99.90;;;;;;4993411;28;20270;-87
2021/10/05 05:34:07;;;;;;;4.33;1.60;;;11.40;99.90;;;;;;4994304;28;20245;-85
2021/10/05 05:36:34;;;;;;;3.13;1.80;;;11.40;99.90;;;;;;4993927;28;20246;-88
2021/10/05 05:39:03;;;;;;;5.13;1.70;;;11.40;99.90;;;;;;4993721;28;20235;-84
2021/10/05 05:41:30;;;;;;;3.67;1.97;;;11.40;99.90;;;;;;4991919;28;20698;-85
2021/10/05 05:43:56;;;;;;;3.17;1.40;;;11.40;99.90;;;;;;5005837;28;20226;-86
2021/10/05 05:46:23;;;;;;;6.10;1.73;;;11.40;99.90;;;;;;5012455;28;20230;-88
2021/10/05 05:48:50;;;;;;;6.10;2.00;;;11.40;99.90;;;;;;5011827;28;20211;-85
2021/10/05 05:51:17;;;;;;;5.73;1.67;;;11.40;99.90;;;;;;5012667;28;20217;-87
2021/10/05 05:53:45;;;;;;;4.60;2.10;;;11.40;99.90;;;;;;5012235;28;20214;-87
2021/10/05 05:56:13;;;;;;;4.90;2.00;;;11.40;99.90;;;;;;5000212;28;20207;-86
2021/10/05 05:58:40;;;;;;;4.17;1.70;;;11.40;99.90;;;;;;4990703;28;20254;-87
2021/10/05 06:01:06;;;;;;;5.13;1.83;;;11.40;99.90;;;;;;4990933;28;20207;-87
2021/10/05 06:03:33;;;;;;;3.70;1.80;;;11.40;99.90;;;;;;4991494;28;20211;-87
2021/10/05 06:06:01;;;;;;;3.97;1.80;;;11.40;99.90;;;;;;4994050;28;20239;-88
2021/10/05 06:08:28;;;;;;;3.37;1.60;;;11.40;99.90;;;;;;4994688;28;20199;-88
2021/10/05 06:10:54;;;;;;;3.23;1.60;;;11.40;99.90;;;;;;4994879;28;20215;-87
2021/10/05 06:13:23;;;;;;;4.43;1.70;;;11.40;99.90;;;;;;4994122;28;20204;-86
2021/10/05 06:15:50;;;;;;;2.97;1.47;;;11.40;99.90;;;;;;4993660;28;20218;-85
2021/10/05 06:18:16;;;;;;;7.13;2.10;;;11.40;99.90;;;;;;4995786;28;20234;-87
2021/10/05 06:20:43;;;;;;;4.70;2.00;;;11.40;99.90;;;;;;4995692;28;20231;-88
2021/10/05 06:23:10;;;;;;;4.73;2.10;;;11.30;99.90;;;;;;4994783;28;20258;-90
2021/10/05 06:25:40;;;;;;;5.43;1.90;;;11.40;99.90;;;;;;5012775;28;20235;-87
2021/10/05 06:28:07;;;;;;;4.90;2.20;;;11.40;99.90;;;;;;5012891;28;20290;-89
2021/10/05 06:30:36;;;;;;;3.67;1.57;;;11.40;99.90;;;;;;5011927;28;20211;-89
2021/10/05 06:33:03;;;;;;;4.47;1.70;;;11.40;99.90;;;;;;5012676;28;20210;-89
2021/10/05 06:35:32;;;;;;;2.63;1.87;;;11.50;99.90;;;;;;5011938;28;20211;-84
2021/10/05 06:38:00;;;;;;;5.73;2.00;;;11.50;99.90;;;;;;5003933;28;20208;-88
2021/10/05 06:40:29;;;;;;;3.80;1.83;;;11.50;99.90;;;;;;4972282;28;20224;-87
2021/10/05 06:42:55;;;;;;;4.37;1.50;;;11.50;99.90;;;;;;5000785;28;20228;-86
2021/10/05 06:45:22;;;;;;;3.93;1.57;;;11.60;99.90;;;;;;5011423;28;20207;-86
2021/10/05 06:47:51;;;;;;;4.77;1.77;;;11.60;99.90;;;;;;5011831;28;20203;-88
2021/10/05 06:50:18;;;;;;;3.67;1.77;;;11.60;99.90;;;;;;5009015;28;20523;-87
2021/10/05 06:52:45;;;;;;;2.70;1.63;;;11.70;99.90;;;;;;4992144;28;20208;-86
2021/10/05 06:55:18;;;;;;;3.13;1.57;;;11.70;99.90;;;;;;4974065;28;20208;-92
2021/10/05 06:57:46;;;;;;;4.13;1.43;;;11.70;99.90;;;;;;4991088;28;20200;-88
2021/10/05 07:00:15;;;;;;;4.33;2.23;;;11.80;99.90;;;;;;5004185;28;20241;-87
2021/10/05 07:02:42;;;;;;;5.30;1.90;;;11.80;99.90;;;;;;5006503;28;20209;-88
2021/10/05 07:05:13;;;;;;;2.70;1.60;;;11.90;99.90;;;;;;5007953;28;20235;-90
2021/10/05 07:07:41;;;;;;;2.10;1.50;;;11.90;99.90;;;;;;5008615;28;20525;-88
2021/10/05 07:10:09;;;;;;;3.37;1.63;;;11.90;99.90;;;;;;5008556;28;20203;-87
2021/10/05 07:12:36;;;;;;;7.60;2.13;;;11.90;99.90;;;;;;5005645;28;20476;-86
2021/10/05 07:15:03;;;;;;;5.40;2.27;;;12.00;99.90;;;;;;4995903;28;20626;-87
2021/10/05 07:17:30;;;;;;;3.87;1.40;;;12.00;99.90;;;;;;5006729;28;20214;-87
2021/10/05 07:19:57;;;;;;;2.27;1.40;;;12.10;99.90;;;;;;5004864;28;20235;-85
2021/10/05 07:22:25;;;;;;;6.30;1.70;;;12.10;99.90;;;;;;5007146;28;20203;-88
2021/10/05 07:24:52;;;;;;;5.53;1.47;;;12.10;99.90;;;;;;4992470;28;20239;-86
2021/10/05 07:27:19;;;;;;;6.03;1.60;;;12.20;99.90;;;;;;4989546;28;20311;-84
2021/10/05 07:29:47;;;;;;;4.43;1.50;;;12.20;99.90;;;;;;4990645;28;20227;-86
2021/10/05 07:32:14;;;;;;;3.17;1.37;;;12.30;99.90;;;;;;4989230;28;20207;-84
2021/10/05 07:34:42;;;;;;;4.53;1.30;;;12.30;99.90;;;;;;4986372;28;20271;-89
2021/10/05 07:37:09;;;;;;;3.10;1.30;;;12.40;99.90;;;;;;4992248;28;20298;-86
2021/10/05 07:39:38;;;;;;;7.37;1.60;;;12.50;99.90;;;;;;5006129;28;20225;-87
2021/10/05 07:42:05;;;;;;;4.77;1.50;;;12.50;99.90;;;;;;4990655;28;20212;-86
2021/10/05 07:44:33;;;;;;;6.17;1.47;;;12.60;99.90;;;;;;4987572;28;20243;-86
2021/10/05 07:47:00;;;;;;;4.70;1.40;;;12.70;99.90;;;;;;4987525;28;20208;-85
2021/10/05 07:49:27;;;;;;;4.37;1.30;;;12.70;99.90;;;;;;4987850;28;20219;-87
2021/10/05 07:51:54;;;;;;;4.43;1.30;;;12.80;99.90;;;;;;4988321;28;20212;-84
2021/10/05 07:54:23;;;;;;;5.50;1.40;;;12.80;99.90;;;;;;4993634;28;20288;-85
2021/10/05 07:56:51;;;;;;;3.47;1.27;;;12.80;99.90;;;;;;5011016;28;20211;-88
2021/10/05 07:59:18;;;;;;;3.50;1.50;;;12.90;99.90;;;;;;4996358;28;20315;-90
2021/10/05 08:01:49;;;;;;;3.83;1.40;;;13.00;99.90;;;;;;4987258;28;20204;-92
2021/10/05 08:04:16;;;;;;;3.97;1.87;;;13.00;99.90;;;;;;4986559;28;20212;-86
2021/10/05 08:06:43;;;;;;;3.53;1.43;;;13.10;99.90;;;;;;4985982;28;20246;-87
2021/10/05 08:09:12;;;;;;;2.57;1.20;;;13.20;99.90;;;;;;4986832;28;20222;-90
2021/10/05 08:11:38;;;;;;;7.63;1.60;;;13.30;99.90;;;;;;4986321;28;20200;-86
2021/10/05 08:14:07;;;;;;;6.50;1.37;;;13.30;99.90;;;;;;4986281;28;20224;-85
2021/10/05 08:16:34;;;;;;;4.07;1.77;;;13.40;99.90;;;;;;4986659;28;20287;-87
2021/10/05 08:19:01;;;;;;;3.70;1.60;;;13.50;99.90;;;;;;4986904;28;20203;-86
2021/10/05 08:21:29;;;;;;;5.47;1.37;;;13.50;99.90;;;;;;4986659;28;20238;-85
2021/10/05 08:23:56;;;;;;;5.90;1.30;;;13.60;99.90;;;;;;4987344;28;20196;-83
2021/10/05 08:26:24;;;;;;;4.53;1.30;;;13.70;99.90;;;;;;4986041;28;20207;-88
2021/10/05 08:28:51;;;;;;;4.07;1.40;;;13.70;99.90;;;;;;4985810;28;20196;-84
2021/10/05 08:31:19;;;;;;;6.63;1.30;;;13.80;99.90;;;;;;4986408;28;20314;-85
2021/10/05 08:33:47;;;;;;;5.07;1.30;;;13.90;99.90;;;;;;4991134;28;20885;-86
2021/10/05 08:36:14;;;;;;;3.10;1.20;;;13.90;99.90;;;;;;5006411;28;20211;-89
2021/10/05 08:38:41;;;;;;;4.10;1.50;;;14.00;99.90;;;;;;5006486;28;20199;-83
2021/10/05 08:41:08;;;;;;;5.17;1.40;;;14.10;99.90;;;;;;5006083;28;20618;-87
2021/10/05 08:43:35;;;;;;;2.53;1.30;;;14.10;99.90;;;;;;4993808;28;20208;-89
2021/10/05 08:46:03;;;;;;;5.27;1.10;;;14.20;99.90;;;;;;4987335;28;20204;-87
2021/10/05 08:48:32;;;;;;;7.07;1.30;;;14.20;99.90;;;;;;4986260;28;20197;-88
2021/10/05 08:50:59;;;;;;;3.70;1.00;;;14.30;99.90;;;;;;4976309;28;20207;-89
2021/10/05 08:53:28;;;;;;;3.17;1.20;;;14.40;99.90;;;;;;5006435;28;20207;-85
2021/10/05 08:55:55;;;;;;;5.13;1.50;;;14.50;99.90;;;;;;5007161;28;20210;-85
2021/10/05 08:58:22;;;;;;;4.07;1.50;;;14.60;99.90;;;;;;5006948;28;20231;-86
2021/10/05 09:00:49;;;;;;;2.93;1.00;;;14.60;99.90;;;;;;4990787;28;20235;-87
2021/10/05 09:03:22;;;;;;;4.77;1.20;;;14.80;99.90;;;;;;4988077;28;20600;-88
2021/10/05 09:05:51;;;;;;;3.03;0.97;;;15.10;99.90;;;;;;4990243;28;20251;-90
2021/10/05 09:08:22;;;;;;;4.73;1.07;;;15.20;99.90;;;;;;4999871;28;20215;-87
2021/10/05 09:10:53;;;;;;;4.27;0.97;;;15.30;99.90;;;;;;5010550;28;20586;-88
2021/10/05 09:13:30;;;;;;;3.30;1.30;;;15.30;99.90;;;;;;5012496;28;20199;-88
2021/10/05 09:15:57;;;;;;;5.50;1.10;;;15.30;99.90;;;;;;5004714;28;20200;-84
2021/10/05 09:18:24;;;;;;;3.50;1.20;;;15.40;99.90;;;;;;4992105;28;20211;-83
2021/10/05 09:20:52;;;;;;;2.83;1.27;;;15.30;99.90;;;;;;4993235;28;20624;-86
2021/10/05 09:23:19;;;;;;;4.60;1.13;;;15.40;99.90;;;;;;4989816;28;20216;-84
2021/10/05 09:25:50;;;;;;;2.93;1.00;;;15.40;99.90;;;;;;4993127;28;20713;-84
2021/10/05 09:28:19;;;;;;;4.33;1.20;;;15.40;99.90;;;;;;4994068;28;20202;-85
2021/10/05 09:30:57;;;;;;;2.27;1.20;;;15.50;99.90;;;;;;4990239;28;20648;-87
2021/10/05 09:33:24;;;;;;;5.60;1.03;;;15.40;99.90;;;;;;4999035;28;20210;-89
2021/10/05 09:35:52;;;;;;;0.90;0.80;;;15.50;99.90;;;;;;5008996;28;20203;-85
2021/10/05 09:38:22;;;;;;;3.23;1.43;;;15.50;99.90;;;;;;5008602;28;20239;-87
2021/10/05 09:40:58;;;;;;;3.70;1.20;;;15.50;99.90;;;;;;5008612;28;20227;-85
2021/10/05 09:43:26;;;;;;;7.60;1.67;;;15.60;99.90;;;;;;5007583;28;20207;-83
2021/10/05 09:45:52;;;;;;;5.73;1.20;;;15.60;99.90;;;;;;5006827;28;20630;-85
2021/10/05 09:48:19;;;;;;;13.03;1.63;;;15.50;99.90;;;;;;4988683;28;20258;-82
2021/10/05 09:50:46;;;;;;;4.67;1.20;;;15.60;99.90;;;;;;4988563;28;20207;-85
2021/10/05 09:53:18;;;;;;;6.10;1.17;;;15.70;99.90;;;;;;4995457;28;20677;-89
2021/10/05 09:55:47;;;;;;;10.13;2.03;;;15.70;99.90;;;;;;5007136;23;20243;-84
2021/10/05 09:58:16;;;;;;;4.23;1.40;;;15.70;99.90;;;;;;4974407;28;20216;-86
2021/10/05 10:00:45;;;;;;;4.80;1.20;;;15.80;99.90;;;;;;4969207;28;20384;-87
2021/10/05 10:03:12;;;;;;;2.63;1.00;;;15.90;99.90;;;;;;4969303;28;20264;-86
2021/10/05 10:05:40;;;;;;;4.20;1.20;;;15.90;99.90;;;;;;4968201;28;20205;-87
2021/10/05 10:08:08;;;;;;;4.70;1.10;;;16.00;99.90;;;;;;4968862;28;20616;-85
2021/10/05 10:10:37;;;;;;;3.83;1.37;;;16.00;99.90;;;;;;4968679;28;20205;-85
2021/10/05 10:13:07;;;;;;;3.40;1.07;;;16.00;99.90;;;;;;4968839;28;20208;-84
2021/10/05 10:15:35;;;;;;;2.33;1.00;;;16.00;99.90;;;;;;4968907;28;20221;-85
2021/10/05 10:18:08;;;;;;;3.40;1.02;;;16.00;99.90;;;;;;4968302;28;20204;-84
2021/10/05 10:20:36;;;;;;;2.07;1.00;;;16.10;99.90;;;;;;4967460;28;20231;-83
2021/10/05 10:23:03;;;;;;;2.40;1.13;;;16.10;99.90;;;;;;4970192;28;20197;-84
2021/10/05 10:25:32;;;;;;;5.47;1.83;;;16.00;99.90;;;;;;4967924;28;20597;-82
2021/10/05 10:28:12;;;;;;;3.37;1.50;;;16.00;99.90;;;;;;4970501;28;20201;-88
2021/10/05 10:30:50;;;;;;;2.63;1.03;;;16.10;99.90;;;;;;4983602;28;20302;-85
2021/10/05 10:33:17;;;;;;;2.23;1.20;;;16.20;99.90;;;;;;4988851;28;20203;-85
2021/10/05 10:35:50;;;;;;;5.18;1.30;;;16.30;99.90;;;;;;4987747;28;20212;-84
2021/10/05 10:38:24;;;;;;;4.53;0.93;;;16.40;99.90;;;;;;5001634;28;20253;-83
2021/10/05 10:40:51;;;;;;;4.60;1.00;;;16.50;99.90;;;;;;5006793;28;20985;-86
2021/10/05 10:43:21;;;;;;;1.93;0.97;;;16.60;99.90;;;;;;5007820;28;20211;-87
2021/10/05 10:45:50;;;;;;;3.55;1.00;;;16.60;99.90;;;;;;5007846;28;20203;-86
2021/10/05 10:48:26;;;;;;;5.00;0.98;;;16.60;99.90;;;;;;4995818;28;20223;-86
2021/10/05 10:50:54;;;;;;;4.05;1.00;;;16.70;99.90;;;;;;4987750;28;20246;-86
2021/10/05 10:53:36;;;;;;;4.05;1.17;;;16.60;99.90;;;;;;4987173;28;20204;-87
2021/10/05 10:56:03;;;;;;;2.25;0.88;;;16.60;99.90;;;;;;4987587;28;20240;-83
2021/10/05 10:58:41;;;;;;;3.70;1.07;;;16.50;99.90;;;;;;5001991;28;20239;-87
2021/10/05 11:01:09;;;;;;;2.92;0.95;;;16.40;99.90;;;;;;4989998;28;20228;-89
2021/10/05 11:03:36;;;;;;;3.80;1.48;;;16.40;99.90;;;;;;4988077;28;20216;-81
2021/10/05 11:06:13;;;;;;;3.30;1.10;;;16.30;99.90;;;;;;4989218;28;20215;-82
2021/10/05 11:08:40;;;;;;;2.77;1.10;;;16.20;99.90;;;;;;4991117;28;20212;-86
2021/10/05 11:11:07;;;;;;;2.70;1.15;;;16.10;99.90;;;;;;5003603;28;20280;-83
2021/10/05 11:13:34;;;;;;;4.40;1.00;;;16.10;99.90;;;;;;5004612;28;20211;-84
2021/10/05 11:16:04;;;;;;;3.37;1.13;;;16.10;99.90;;;;;;4987280;28;20203;-84
2021/10/05 11:18:31;;;;;;;4.90;1.17;;;16.10;99.90;;;;;;4986929;28;20356;-81
2021/10/05 11:21:02;;;;;;;4.40;1.00;;;16.00;99.90;;;;;;4987311;28;20809;-85
2021/10/05 11:23:29;;;;;;;2.55;1.05;;;16.00;99.90;;;;;;4994845;28;20207;-83
2021/10/05 11:25:58;;;;;;;2.57;0.90;;;16.00;99.90;;;;;;5007400;28;20207;-82
2021/10/05 11:28:28;;;;;;;4.63;1.27;;;16.00;99.90;;;;;;4999835;28;20216;-83
2021/10/05 11:30:57;;;;;;;3.42;1.13;;;16.00;99.90;;;;;;5006360;28;20231;-84
2021/10/05 11:33:29;;;;;;;4.90;1.40;;;15.90;99.90;;;;;;5006196;28;20214;-85
2021/10/05 11:35:58;;;;;;;5.23;1.40;;;15.90;99.90;;;;;;5008178;28;20234;-86
2021/10/05 11:38:36;;;;;;;1.63;0.83;;;15.90;99.90;;;;;;5006340;28;20226;-83
2021/10/05 11:41:05;;;;;;;4.30;1.57;;;15.80;99.90;;;;;;5008024;28;20295;-86
2021/10/05 11:43:36;;;;;;;6.55;1.80;;;15.80;99.90;;;;;;5008133;28;20199;-85
2021/10/05 11:46:12;;;;;;;3.67;1.10;;;15.80;99.90;;;;;;5006829;28;20214;-83
2021/10/05 11:48:42;;;;;;;3.13;1.30;;;15.70;99.90;;;;;;5005323;28;20289;-86
2021/10/05 11:51:09;;;;;;;6.30;1.95;;;15.60;99.90;;;;;;5007844;28;20210;-87
2021/10/05 11:53:37;;;;;;;3.37;1.33;;;15.40;99.90;;;;;;5000796;28;20543;-88
2021/10/05 11:56:06;;;;;;;4.80;1.50;;;15.30;99.90;;;;;;4989493;28;20239;-87
2021/10/05 11:58:48;;;;;;;7.20;2.03;;;15.20;99.90;;;;;;4989698;28;20543;-85
2021/10/05 12:01:18;;;;;;;4.20;1.83;;;15.10;99.90;;;;;;5002666;28;20326;-86
2021/10/05 12:03:48;;;;;;;2.80;1.63;;;15.00;99.90;;;;;;5008041;28;20764;-84
2021/10/05 12:06:29;;;;;;;6.87;2.43;;;14.90;99.90;;;;;;5010540;28;20205;-86
2021/10/05 12:08:56;;;;;;;3.80;1.77;;;14.80;99.90;;;;;;5000309;28;20228;-87
2021/10/05 12:11:34;;;;;;;3.70;1.60;;;14.80;99.90;;;;;;4990755;28;20279;-86
2021/10/05 12:14:01;;;;;;;6.30;2.00;;;14.70;99.90;;;;;;5009369;28;20206;-84
2021/10/05 12:16:28;;;;;;;6.43;1.87;;;14.60;99.90;;;;;;5009796;28;20211;-85
2021/10/05 12:18:58;;;;;;;4.83;2.20;;;14.60;99.90;;;;;;4997775;28;20200;-87
2021/10/05 12:21:24;;;;;;;3.27;1.70;;;14.50;99.90;;;;;;5010432;28;20230;-90
2021/10/05 12:23:56;;;;;;;4.10;1.80;;;14.50;99.90;;;;;;5009820;28;20202;-90
2021/10/05 12:26:25;;;;;;;6.13;1.87;;;14.50;99.90;;;;;;5010720;28;20203;-88
2021/10/05 12:29:03;;;;;;;5.43;2.40;;;14.50;99.90;;;;;;5012843;28;20203;-93
2021/10/05 12:31:30;;;;;;;7.17;2.03;;;14.40;99.90;;;;;;4993514;28;20218;-89
2021/10/05 12:34:01;;;;;;;6.90;2.53;;;14.40;99.90;;;;;;5007821;28;20200;-90
2021/10/05 12:36:30;;;;;;;6.93;2.10;;;14.40;99.90;;;;;;5008427;28;20619;-90
2021/10/05 12:38:57;;;;;;;4.07;1.97;;;14.40;99.90;;;;;;5011481;28;20214;-87
2021/10/05 12:41:24;;;;;;;9.23;2.10;;;14.40;99.90;;;;;;5012924;28;20227;-87
2021/10/05 12:43:51;;;;;;;4.67;1.87;;;14.40;99.90;;;;;;5007302;28;20200;-88
2021/10/05 12:46:21;;;;;;;4.23;2.40;;;14.40;99.90;;;;;;5013932;23;20243;-87
2021/10/05 12:48:51;;;;;;;6.20;2.57;;;14.40;99.90;;;;;;5038467;28;20246;-89
2021/10/05 12:51:21;;;;;;;5.13;2.00;;;14.40;99.90;;;;;;5033272;28;20207;-88